North Robinson, Ohio
Current Conditions -  °F | °C
As of 5:53 PM on Saturday 20 Dec 2014 (Local Time) from KMNN Reporting Station
Haze Haze  
Wind Chill: 29°   Ceiling: 2700
Heat Index: 29°   Visibility: 5mi
Dew Point: 24°   Wind: 0mph
Humidity: 82%   Direction: NA
Pressure: 30.26"   Gusts: NA
Location:  40.79°N, 82.86°W
Report Text: KMNN 202253Z AUTO 00000KT 5SM HZ OVC027 M02/M04 A3026 RMK AO2 SLP262 T10171044 TSNO
Loading
Personal Weather Stations






























Interactive Weather Map New forecast layout! Learn more

10-Day Weather Forecast

Advertisements
Track Severe Weather on mobile